sensor_id;sensor_type;location;lat;lon;timestamp;temperature;humidity
27128;DHT22;14660;49.008;8.390;2023-02-02T00:01:46;8.20;99.90
27128;DHT22;14660;49.008;8.390;2023-02-02T00:04:21;8.10;99.90
27128;DHT22;14660;49.008;8.390;2023-02-02T00:06:48;8.00;99.90
27128;DHT22;14660;49.008;8.390;2023-02-02T00:09:16;8.10;99.90
27128;DHT22;14660;49.008;8.390;2023-02-02T00:11:48;8.10;99.90
27128;DHT22;14660;49.008;8.390;2023-02-02T00:14:17;8.10;99.90
27128;DHT22;14660;49.008;8.390;2023-02-02T00:17:01;7.90;99.90
27128;DHT22;14660;49.008;8.390;2023-02-02T00:19:29;8.00;99.90
27128;DHT22;14660;49.008;8.390;2023-02-02T00:21:57;8.20;99.90
27128;DHT22;14660;49.008;8.390;2023-02-02T00:24:25;8.10;99.90
27128;DHT22;14660;49.008;8.390;2023-02-02T00:26:54;8.10;99.90
27128;DHT22;14660;49.008;8.390;2023-02-02T00:29:25;8.20;99.90
27128;DHT22;14660;49.008;8.390;2023-02-02T00:31:53;8.00;99.90
27128;DHT22;14660;49.008;8.390;2023-02-02T00:34:21;8.10;99.90
27128;DHT22;14660;49.008;8.390;2023-02-02T00:36:48;8.10;99.90
27128;DHT22;14660;49.008;8.390;2023-02-02T00:39:19;8.10;99.90
27128;DHT22;14660;49.008;8.390;2023-02-02T00:41:49;8.10;99.90
27128;DHT22;14660;49.008;8.390;2023-02-02T00:44:15;8.10;99.90
27128;DHT22;14660;49.008;8.390;2023-02-02T00:47:00;8.00;99.90
27128;DHT22;14660;49.008;8.390;2023-02-02T00:49:29;8.00;99.90
27128;DHT22;14660;49.008;8.390;2023-02-02T00:51:55;8.10;99.90
27128;DHT22;14660;49.008;8.390;2023-02-02T00:54:22;8.10;99.90
27128;DHT22;14660;49.008;8.390;2023-02-02T00:56:52;8.00;99.90
27128;DHT22;14660;49.008;8.390;2023-02-02T00:59:19;8.00;99.90
27128;DHT22;14660;49.008;8.390;2023-02-02T01:01:46;7.90;99.90
27128;DHT22;14660;49.008;8.390;2023-02-02T01:04:13;8.00;99.90
27128;DHT22;14660;49.008;8.390;2023-02-02T01:06:40;8.00;99.90
27128;DHT22;14660;49.008;8.390;2023-02-02T01:09:07;8.00;99.90
27128;DHT22;14660;49.008;8.390;2023-02-02T01:11:34;8.00;99.90
27128;DHT22;14660;49.008;8.390;2023-02-02T01:14:01;7.90;99.90
27128;DHT22;14660;49.008;8.390;2023-02-02T01:16:28;7.90;99.90
27128;DHT22;14660;49.008;8.390;2023-02-02T01:18:55;7.90;99.90
27128;DHT22;14660;49.008;8.390;2023-02-02T01:21:21;8.00;99.90
27128;DHT22;14660;49.008;8.390;2023-02-02T01:23:49;8.00;99.90
27128;DHT22;14660;49.008;8.390;2023-02-02T01:26:16;8.00;99.90
27128;DHT22;14660;49.008;8.390;2023-02-02T01:28:45;8.10;99.90
27128;DHT22;14660;49.008;8.390;2023-02-02T01:31:14;8.00;99.90
27128;DHT22;14660;49.008;8.390;2023-02-02T01:33:43;8.10;99.90
27128;DHT22;14660;49.008;8.390;2023-02-02T01:36:15;8.00;99.90
27128;DHT22;14660;49.008;8.390;2023-02-02T01:38:42;8.10;99.90
27128;DHT22;14660;49.008;8.390;2023-02-02T01:41:16;8.00;99.90
27128;DHT22;14660;49.008;8.390;2023-02-02T01:44:04;8.10;99.90
27128;DHT22;14660;49.008;8.390;2023-02-02T01:46:35;8.00;99.90
27128;DHT22;14660;49.008;8.390;2023-02-02T01:49:15;8.10;99.90
27128;DHT22;14660;49.008;8.390;2023-02-02T01:52:01;8.00;99.90
27128;DHT22;14660;49.008;8.390;2023-02-02T01:54:35;8.10;99.90
27128;DHT22;14660;49.008;8.390;2023-02-02T01:57:34;8.10;99.90
27128;DHT22;14660;49.008;8.390;2023-02-02T02:00:12;8.00;99.90
27128;DHT22;14660;49.008;8.390;2023-02-02T02:02:43;8.10;99.90
27128;DHT22;14660;49.008;8.390;2023-02-02T02:05:24;8.00;99.90
27128;DHT22;14660;49.008;8.390;2023-02-02T02:07:55;7.90;99.90
27128;DHT22;14660;49.008;8.390;2023-02-02T02:10:23;8.00;99.90
27128;DHT22;14660;49.008;8.390;2023-02-02T02:12:49;8.00;99.90
27128;DHT22;14660;49.008;8.390;2023-02-02T02:15:16;7.90;99.90
27128;DHT22;14660;49.008;8.390;2023-02-02T02:21:36;8.00;99.90
27128;DHT22;14660;49.008;8.390;2023-02-02T02:28:14;8.00;99.90
27128;DHT22;14660;49.008;8.390;2023-02-02T02:36:49;7.90;99.90
27128;DHT22;14660;49.008;8.390;2023-02-02T02:39:26;7.90;99.90
27128;DHT22;14660;49.008;8.390;2023-02-02T02:42:21;7.90;99.90
27128;DHT22;14660;49.008;8.390;2023-02-02T02:44:49;7.90;99.90
27128;DHT22;14660;49.008;8.390;2023-02-02T02:47:17;7.90;99.90
27128;DHT22;14660;49.008;8.390;2023-02-02T02:49:46;7.80;99.90
27128;DHT22;14660;49.008;8.390;2023-02-02T02:52:14;7.90;99.90
27128;DHT22;14660;49.008;8.390;2023-02-02T02:55:00;7.90;99.90
27128;DHT22;14660;49.008;8.390;2023-02-02T02:58:03;7.90;99.90
27128;DHT22;14660;49.008;8.390;2023-02-02T03:06:32;8.00;99.90
27128;DHT22;14660;49.008;8.390;2023-02-02T03:09:28;7.90;99.90
27128;DHT22;14660;49.008;8.390;2023-02-02T03:11:56;7.80;99.90
27128;DHT22;14660;49.008;8.390;2023-02-02T03:14:23;7.80;99.90
27128;DHT22;14660;49.008;8.390;2023-02-02T03:16:51;7.90;99.90
27128;DHT22;14660;49.008;8.390;2023-02-02T03:19:20;7.80;99.90
27128;DHT22;14660;49.008;8.390;2023-02-02T03:21:47;7.90;99.90
27128;DHT22;14660;49.008;8.390;2023-02-02T03:24:12;7.90;99.90
27128;DHT22;14660;49.008;8.390;2023-02-02T03:26:39;7.90;99.90
27128;DHT22;14660;49.008;8.390;2023-02-02T03:29:06;7.80;99.90
27128;DHT22;14660;49.008;8.390;2023-02-02T03:31:32;7.90;99.90
27128;DHT22;14660;49.008;8.390;2023-02-02T03:33:59;7.90;99.90
27128;DHT22;14660;49.008;8.390;2023-02-02T03:36:26;7.90;99.90
27128;DHT22;14660;49.008;8.390;2023-02-02T03:38:55;7.90;99.90
27128;DHT22;14660;49.008;8.390;2023-02-02T03:41:23;7.80;99.90
27128;DHT22;14660;49.008;8.390;2023-02-02T03:43:51;7.90;99.90
27128;DHT22;14660;49.008;8.390;2023-02-02T03:46:18;7.80;99.90
27128;DHT22;14660;49.008;8.390;2023-02-02T03:48:45;7.70;99.90
27128;DHT22;14660;49.008;8.390;2023-02-02T03:51:13;7.80;99.90
27128;DHT22;14660;49.008;8.390;2023-02-02T03:53:41;7.80;99.90
27128;DHT22;14660;49.008;8.390;2023-02-02T03:56:14;7.80;99.90
27128;DHT22;14660;49.008;8.390;2023-02-02T03:58:40;7.80;99.90
27128;DHT22;14660;49.008;8.390;2023-02-02T04:01:10;7.70;99.90
27128;DHT22;14660;49.008;8.390;2023-02-02T04:03:38;7.60;99.90
27128;DHT22;14660;49.008;8.390;2023-02-02T04:06:05;7.70;99.90
27128;DHT22;14660;49.008;8.390;2023-02-02T04:08:32;7.70;99.90
27128;DHT22;14660;49.008;8.390;2023-02-02T04:10:58;7.70;99.90
27128;DHT22;14660;49.008;8.390;2023-02-02T04:13:25;7.70;99.90
27128;DHT22;14660;49.008;8.390;2023-02-02T04:15:58;7.70;99.90
27128;DHT22;14660;49.008;8.390;2023-02-02T04:18:26;7.80;99.90
27128;DHT22;14660;49.008;8.390;2023-02-02T04:20:57;7.60;99.90
27128;DHT22;14660;49.008;8.390;2023-02-02T04:23:25;7.80;99.90
27128;DHT22;14660;49.008;8.390;2023-02-02T04:25:53;7.90;99.90
27128;DHT22;14660;49.008;8.390;2023-02-02T04:28:20;7.80;99.90
27128;DHT22;14660;49.008;8.390;2023-02-02T04:30:48;7.80;99.90
27128;DHT22;14660;49.008;8.390;2023-02-02T04:33:15;7.70;99.90
27128;DHT22;14660;49.008;8.390;2023-02-02T04:35:46;7.80;99.90
27128;DHT22;14660;49.008;8.390;2023-02-02T04:38:13;7.70;99.90
27128;DHT22;14660;49.008;8.390;2023-02-02T04:40:45;7.70;99.90
27128;DHT22;14660;49.008;8.390;2023-02-02T04:43:12;7.80;99.90
27128;DHT22;14660;49.008;8.390;2023-02-02T04:45:40;7.80;99.90
27128;DHT22;14660;49.008;8.390;2023-02-02T04:48:08;7.80;99.90
27128;DHT22;14660;49.008;8.390;2023-02-02T04:50:35;7.80;99.90
27128;DHT22;14660;49.008;8.390;2023-02-02T04:53:03;7.70;99.90
27128;DHT22;14660;49.008;8.390;2023-02-02T04:55:30;7.80;99.90
27128;DHT22;14660;49.008;8.390;2023-02-02T04:57:58;7.60;99.90
27128;DHT22;14660;49.008;8.390;2023-02-02T05:00:25;7.70;99.90
27128;DHT22;14660;49.008;8.390;2023-02-02T05:02:51;7.80;99.90
27128;DHT22;14660;49.008;8.390;2023-02-02T05:05:18;7.80;99.90
27128;DHT22;14660;49.008;8.390;2023-02-02T05:07:45;7.90;99.90
27128;DHT22;14660;49.008;8.390;2023-02-02T05:10:12;7.90;99.90
27128;DHT22;14660;49.008;8.390;2023-02-02T05:12:40;7.90;99.90
27128;DHT22;14660;49.008;8.390;2023-02-02T05:15:07;7.80;99.90
27128;DHT22;14660;49.008;8.390;2023-02-02T05:17:34;7.90;99.90
27128;DHT22;14660;49.008;8.390;2023-02-02T05:20:01;7.90;99.90
27128;DHT22;14660;49.008;8.390;2023-02-02T05:22:28;7.80;99.90
27128;DHT22;14660;49.008;8.390;2023-02-02T05:24:55;7.90;99.90
27128;DHT22;14660;49.008;8.390;2023-02-02T05:27:22;7.90;99.90
27128;DHT22;14660;49.008;8.390;2023-02-02T05:29:49;7.90;99.90
27128;DHT22;14660;49.008;8.390;2023-02-02T05:32:15;7.90;99.90
27128;DHT22;14660;49.008;8.390;2023-02-02T05:34:42;7.90;99.90
27128;DHT22;14660;49.008;8.390;2023-02-02T05:37:09;7.80;99.90
27128;DHT22;14660;49.008;8.390;2023-02-02T05:39:36;7.80;99.90
27128;DHT22;14660;49.008;8.390;2023-02-02T05:42:04;7.80;99.90
27128;DHT22;14660;49.008;8.390;2023-02-02T05:44:31;7.90;99.90
27128;DHT22;14660;49.008;8.390;2023-02-02T05:46:58;7.90;99.90
27128;DHT22;14660;49.008;8.390;2023-02-02T05:49:28;7.90;99.90
27128;DHT22;14660;49.008;8.390;2023-02-02T05:51:56;8.00;99.90
27128;DHT22;14660;49.008;8.390;2023-02-02T05:54:24;8.00;99.90
27128;DHT22;14660;49.008;8.390;2023-02-02T05:56:52;8.00;99.90
27128;DHT22;14660;49.008;8.390;2023-02-02T05:59:21;8.10;99.90
27128;DHT22;14660;49.008;8.390;2023-02-02T06:01:47;8.00;99.90
27128;DHT22;14660;49.008;8.390;2023-02-02T06:04:14;7.90;99.90
27128;DHT22;14660;49.008;8.390;2023-02-02T06:06:41;7.90;99.90
27128;DHT22;14660;49.008;8.390;2023-02-02T06:09:08;7.90;99.90
27128;DHT22;14660;49.008;8.390;2023-02-02T06:11:35;8.10;99.90
27128;DHT22;14660;49.008;8.390;2023-02-02T06:14:02;8.10;99.90
27128;DHT22;14660;49.008;8.390;2023-02-02T06:16:29;8.10;99.90
27128;DHT22;14660;49.008;8.390;2023-02-02T06:18:56;8.00;99.90
27128;DHT22;14660;49.008;8.390;2023-02-02T06:21:23;7.90;99.90
27128;DHT22;14660;49.008;8.390;2023-02-02T06:23:51;8.00;99.90
27128;DHT22;14660;49.008;8.390;2023-02-02T06:26:19;8.10;99.90
27128;DHT22;14660;49.008;8.390;2023-02-02T06:28:50;8.10;99.90
27128;DHT22;14660;49.008;8.390;2023-02-02T06:31:17;8.10;99.90
27128;DHT22;14660;49.008;8.390;2023-02-02T06:33:45;8.10;99.90
27128;DHT22;14660;49.008;8.390;2023-02-02T06:36:11;8.00;99.90
27128;DHT22;14660;49.008;8.390;2023-02-02T06:38:38;7.90;99.90
27128;DHT22;14660;49.008;8.390;2023-02-02T06:41:05;8.00;99.90
27128;DHT22;14660;49.008;8.390;2023-02-02T06:43:32;7.90;99.90
27128;DHT22;14660;49.008;8.390;2023-02-02T06:45:59;8.00;99.90
27128;DHT22;14660;49.008;8.390;2023-02-02T06:48:26;7.80;99.90
27128;DHT22;14660;49.008;8.390;2023-02-02T06:50:57;7.80;99.90
27128;DHT22;14660;49.008;8.390;2023-02-02T06:53:25;7.70;99.90
27128;DHT22;14660;49.008;8.390;2023-02-02T06:55:54;7.80;99.90
27128;DHT22;14660;49.008;8.390;2023-02-02T06:58:21;7.70;99.90
27128;DHT22;14660;49.008;8.390;2023-02-02T07:00:48;7.80;99.90
27128;DHT22;14660;49.008;8.390;2023-02-02T07:03:16;7.90;99.90
27128;DHT22;14660;49.008;8.390;2023-02-02T07:05:44;7.90;99.90
27128;DHT22;14660;49.008;8.390;2023-02-02T07:08:11;7.80;99.90
27128;DHT22;14660;49.008;8.390;2023-02-02T07:10:38;7.80;99.90
27128;DHT22;14660;49.008;8.390;2023-02-02T07:13:04;7.80;99.90
27128;DHT22;14660;49.008;8.390;2023-02-02T07:15:32;7.90;99.90
27128;DHT22;14660;49.008;8.390;2023-02-02T07:17:59;7.90;99.90
27128;DHT22;14660;49.008;8.390;2023-02-02T07:20:26;7.80;99.90
27128;DHT22;14660;49.008;8.390;2023-02-02T07:22:54;7.90;99.90
27128;DHT22;14660;49.008;8.390;2023-02-02T07:25:22;7.90;99.90
27128;DHT22;14660;49.008;8.390;2023-02-02T07:27:54;7.90;99.90
27128;DHT22;14660;49.008;8.390;2023-02-02T07:30:21;8.00;99.90
27128;DHT22;14660;49.008;8.390;2023-02-02T07:32:49;8.10;99.90
27128;DHT22;14660;49.008;8.390;2023-02-02T07:35:16;8.10;99.90
27128;DHT22;14660;49.008;8.390;2023-02-02T07:37:43;8.00;99.90
27128;DHT22;14660;49.008;8.390;2023-02-02T07:40:10;8.20;99.90
27128;DHT22;14660;49.008;8.390;2023-02-02T07:42:37;8.00;99.90
27128;DHT22;14660;49.008;8.390;2023-02-02T07:45:04;8.10;99.90
27128;DHT22;14660;49.008;8.390;2023-02-02T07:47:31;8.10;99.90
27128;DHT22;14660;49.008;8.390;2023-02-02T07:49:58;8.00;99.90
27128;DHT22;14660;49.008;8.390;2023-02-02T07:52:25;8.00;99.90
27128;DHT22;14660;49.008;8.390;2023-02-02T07:54:51;8.00;99.90
27128;DHT22;14660;49.008;8.390;2023-02-02T07:57:18;8.20;99.90
27128;DHT22;14660;49.008;8.390;2023-02-02T07:59:46;8.10;99.90
27128;DHT22;14660;49.008;8.390;2023-02-02T08:02:15;8.10;99.90
27128;DHT22;14660;49.008;8.390;2023-02-02T08:04:42;8.20;99.90
27128;DHT22;14660;49.008;8.390;2023-02-02T08:07:09;8.20;99.90
27128;DHT22;14660;49.008;8.390;2023-02-02T08:09:36;8.20;99.90
27128;DHT22;14660;49.008;8.390;2023-02-02T08:12:04;8.30;99.90
27128;DHT22;14660;49.008;8.390;2023-02-02T08:14:31;8.30;99.90
27128;DHT22;14660;49.008;8.390;2023-02-02T08:16:58;8.20;99.90
27128;DHT22;14660;49.008;8.390;2023-02-02T08:19:26;8.30;99.90
27128;DHT22;14660;49.008;8.390;2023-02-02T08:21:53;8.30;99.90
27128;DHT22;14660;49.008;8.390;2023-02-02T08:24:20;8.30;99.90
27128;DHT22;14660;49.008;8.390;2023-02-02T08:26:47;8.40;99.90
27128;DHT22;14660;49.008;8.390;2023-02-02T08:29:14;8.40;99.90
27128;DHT22;14660;49.008;8.390;2023-02-02T08:31:44;8.40;99.90
27128;DHT22;14660;49.008;8.390;2023-02-02T08:34:11;8.40;99.90
27128;DHT22;14660;49.008;8.390;2023-02-02T08:36:39;8.50;99.90
27128;DHT22;14660;49.008;8.390;2023-02-02T08:39:10;8.40;99.90
27128;DHT22;14660;49.008;8.390;2023-02-02T08:41:38;8.50;99.90
27128;DHT22;14660;49.008;8.390;2023-02-02T08:44:09;8.50;99.90
27128;DHT22;14660;49.008;8.390;2023-02-02T08:46:36;8.50;99.90
27128;DHT22;14660;49.008;8.390;2023-02-02T08:49:03;8.50;99.90
27128;DHT22;14660;49.008;8.390;2023-02-02T08:51:31;8.50;99.90
27128;DHT22;14660;49.008;8.390;2023-02-02T08:53:58;8.70;99.90
27128;DHT22;14660;49.008;8.390;2023-02-02T08:56:26;8.80;99.90
27128;DHT22;14660;49.008;8.390;2023-02-02T08:58:55;8.70;99.90
27128;DHT22;14660;49.008;8.390;2023-02-02T09:01:29;8.60;99.90
27128;DHT22;14660;49.008;8.390;2023-02-02T09:04:01;8.70;99.90
27128;DHT22;14660;49.008;8.390;2023-02-02T09:06:32;8.70;99.90
27128;DHT22;14660;49.008;8.390;2023-02-02T09:09:00;8.60;99.90
27128;DHT22;14660;49.008;8.390;2023-02-02T09:11:27;8.60;99.90
27128;DHT22;14660;49.008;8.390;2023-02-02T09:13:56;8.60;99.90
27128;DHT22;14660;49.008;8.390;2023-02-02T09:16:25;8.60;99.90
27128;DHT22;14660;49.008;8.390;2023-02-02T09:18:52;8.70;99.90
27128;DHT22;14660;49.008;8.390;2023-02-02T09:21:20;8.60;99.90
27128;DHT22;14660;49.008;8.390;2023-02-02T09:23:48;8.70;99.90
27128;DHT22;14660;49.008;8.390;2023-02-02T09:26:34;8.70;99.90
27128;DHT22;14660;49.008;8.390;2023-02-02T09:29:03;8.80;99.90
27128;DHT22;14660;49.008;8.390;2023-02-02T09:31:34;8.80;99.90
27128;DHT22;14660;49.008;8.390;2023-02-02T09:34:02;8.90;99.90
27128;DHT22;14660;49.008;8.390;2023-02-02T09:36:31;8.90;99.90
27128;DHT22;14660;49.008;8.390;2023-02-02T09:38:58;8.90;99.90
27128;DHT22;14660;49.008;8.390;2023-02-02T09:45:01;8.90;99.90
27128;DHT22;14660;49.008;8.390;2023-02-02T09:47:51;9.00;99.90
27128;DHT22;14660;49.008;8.390;2023-02-02T09:53:30;9.00;99.90
27128;DHT22;14660;49.008;8.390;2023-02-02T09:56:05;8.90;99.90
27128;DHT22;14660;49.008;8.390;2023-02-02T09:58:53;8.80;99.90
27128;DHT22;14660;49.008;8.390;2023-02-02T10:01:37;9.00;99.90
27128;DHT22;14660;49.008;8.390;2023-02-02T10:06:56;9.20;99.90
27128;DHT22;14660;49.008;8.390;2023-02-02T10:09:50;9.20;99.90
27128;DHT22;14660;49.008;8.390;2023-02-02T10:12:48;9.30;99.90
27128;DHT22;14660;49.008;8.390;2023-02-02T10:24:37;9.30;99.90
27128;DHT22;14660;49.008;8.390;2023-02-02T10:27:07;9.40;99.90
27128;DHT22;14660;49.008;8.390;2023-02-02T10:30:01;9.30;99.90
27128;DHT22;14660;49.008;8.390;2023-02-02T10:45:16;9.30;99.90
27128;DHT22;14660;49.008;8.390;2023-02-02T10:47:44;9.30;99.90
27128;DHT22;14660;49.008;8.390;2023-02-02T10:50:21;9.30;99.90
27128;DHT22;14660;49.008;8.390;2023-02-02T10:52:52;9.40;99.90
27128;DHT22;14660;49.008;8.390;2023-02-02T11:01:16;9.40;99.90
27128;DHT22;14660;49.008;8.390;2023-02-02T11:03:48;9.30;99.90
27128;DHT22;14660;49.008;8.390;2023-02-02T11:06:35;9.30;99.90
27128;DHT22;14660;49.008;8.390;2023-02-02T11:09:23;9.30;99.90
27128;DHT22;14660;49.008;8.390;2023-02-02T11:15:07;9.30;99.90
27128;DHT22;14660;49.008;8.390;2023-02-02T11:17:34;9.30;99.90
27128;DHT22;14660;49.008;8.390;2023-02-02T11:20:21;9.30;99.90
27128;DHT22;14660;49.008;8.390;2023-02-02T11:22:59;9.40;99.90
27128;DHT22;14660;49.008;8.390;2023-02-02T11:25:44;9.40;99.90
27128;DHT22;14660;49.008;8.390;2023-02-02T11:28:33;9.20;99.90
27128;DHT22;14660;49.008;8.390;2023-02-02T11:31:01;9.20;99.90
27128;DHT22;14660;49.008;8.390;2023-02-02T11:33:35;9.20;99.90
27128;DHT22;14660;49.008;8.390;2023-02-02T11:36:21;9.20;99.90
27128;DHT22;14660;49.008;8.390;2023-02-02T11:38:47;9.30;99.90
27128;DHT22;14660;49.008;8.390;2023-02-02T11:41:13;9.20;99.90
27128;DHT22;14660;49.008;8.390;2023-02-02T11:43:50;9.30;99.90
27128;DHT22;14660;49.008;8.390;2023-02-02T11:46:27;9.40;99.90
27128;DHT22;14660;49.008;8.390;2023-02-02T11:49:17;9.30;99.90
27128;DHT22;14660;49.008;8.390;2023-02-02T11:52:05;9.30;99.90
27128;DHT22;14660;49.008;8.390;2023-02-02T11:54:38;9.40;99.90
27128;DHT22;14660;49.008;8.390;2023-02-02T11:57:09;9.40;99.90
27128;DHT22;14660;49.008;8.390;2023-02-02T11:59:44;9.40;99.90
27128;DHT22;14660;49.008;8.390;2023-02-02T12:02:22;9.40;99.90
27128;DHT22;14660;49.008;8.390;2023-02-02T12:05:34;9.50;99.90
27128;DHT22;14660;49.008;8.390;2023-02-02T12:07:43;9.50;99.90
27128;DHT22;14660;49.008;8.390;2023-02-02T12:10:40;9.50;99.90
27128;DHT22;14660;49.008;8.390;2023-02-02T12:59:26;9.60;99.90
27128;DHT22;14660;49.008;8.390;2023-02-02T13:02:21;9.60;99.90
27128;DHT22;14660;49.008;8.390;2023-02-02T13:08:19;9.60;99.90
27128;DHT22;14660;49.008;8.390;2023-02-02T13:10:54;9.60;99.90
27128;DHT22;14660;49.008;8.390;2023-02-02T13:13:28;9.50;99.90
27128;DHT22;14660;49.008;8.390;2023-02-02T13:16:04;9.50;99.90
27128;DHT22;14660;49.008;8.390;2023-02-02T13:18:36;9.50;99.90
27128;DHT22;14660;49.008;8.390;2023-02-02T13:21:12;9.50;99.90
27128;DHT22;14660;49.008;8.390;2023-02-02T13:24:00;9.50;99.90
27128;DHT22;14660;49.008;8.390;2023-02-02T13:26:33;9.40;99.90
27128;DHT22;14660;49.008;8.390;2023-02-02T13:29:29;9.30;99.90
27128;DHT22;14660;49.008;8.390;2023-02-02T13:35:10;9.30;99.90
27128;DHT22;14660;49.008;8.390;2023-02-02T13:40:51;9.20;99.90
27128;DHT22;14660;49.008;8.390;2023-02-02T13:46:45;9.30;99.90
27128;DHT22;14660;49.008;8.390;2023-02-02T13:55:45;9.40;99.90
27128;DHT22;14660;49.008;8.390;2023-02-02T14:01:20;9.40;99.90
27128;DHT22;14660;49.008;8.390;2023-02-02T14:03:55;9.30;99.90
27128;DHT22;14660;49.008;8.390;2023-02-02T14:06:26;9.30;99.90
27128;DHT22;14660;49.008;8.390;2023-02-02T14:09:02;9.30;99.90
27128;DHT22;14660;49.008;8.390;2023-02-02T14:11:38;9.40;99.90
27128;DHT22;14660;49.008;8.390;2023-02-02T14:14:26;9.30;99.90
27128;DHT22;14660;49.008;8.390;2023-02-02T14:20:05;9.40;99.90
27128;DHT22;14660;49.008;8.390;2023-02-02T14:23:00;9.40;99.90
27128;DHT22;14660;49.008;8.390;2023-02-02T14:25:45;9.30;99.90
27128;DHT22;14660;49.008;8.390;2023-02-02T14:28:38;9.40;99.90
27128;DHT22;14660;49.008;8.390;2023-02-02T14:34:35;9.40;99.90
27128;DHT22;14660;49.008;8.390;2023-02-02T14:46:33;9.20;99.90
27128;DHT22;14660;49.008;8.390;2023-02-02T14:49:21;9.30;99.90
27128;DHT22;14660;49.008;8.390;2023-02-02T14:51:59;9.40;99.90
27128;DHT22;14660;49.008;8.390;2023-02-02T14:54:38;9.50;99.90
27128;DHT22;14660;49.008;8.390;2023-02-02T14:57:27;9.40;99.90
27128;DHT22;14660;49.008;8.390;2023-02-02T14:59:55;9.50;99.90
27128;DHT22;14660;49.008;8.390;2023-02-02T15:02:31;9.60;99.90
27128;DHT22;14660;49.008;8.390;2023-02-02T15:11:03;9.40;99.90
27128;DHT22;14660;49.008;8.390;2023-02-02T15:14:03;9.50;99.90
27128;DHT22;14660;49.008;8.390;2023-02-02T15:16:35;9.50;99.90
27128;DHT22;14660;49.008;8.390;2023-02-02T15:19:14;9.50;99.90
27128;DHT22;14660;49.008;8.390;2023-02-02T15:22:00;9.50;99.90
27128;DHT22;14660;49.008;8.390;2023-02-02T15:24:29;9.50;99.90
27128;DHT22;14660;49.008;8.390;2023-02-02T15:26:58;9.30;99.90
27128;DHT22;14660;49.008;8.390;2023-02-02T15:29:45;9.40;99.90
27128;DHT22;14660;49.008;8.390;2023-02-02T15:32:20;9.50;99.90
27128;DHT22;14660;49.008;8.390;2023-02-02T15:35:02;9.30;99.90
27128;DHT22;14660;49.008;8.390;2023-02-02T15:37:36;9.30;99.90
27128;DHT22;14660;49.008;8.390;2023-02-02T15:40:18;9.40;99.90
27128;DHT22;14660;49.008;8.390;2023-02-02T15:43:07;9.40;99.90
27128;DHT22;14660;49.008;8.390;2023-02-02T15:46:00;9.40;99.90
27128;DHT22;14660;49.008;8.390;2023-02-02T15:48:46;9.40;99.90
27128;DHT22;14660;49.008;8.390;2023-02-02T15:51:35;9.50;99.90
27128;DHT22;14660;49.008;8.390;2023-02-02T15:54:17;9.40;99.90
27128;DHT22;14660;49.008;8.390;2023-02-02T15:56:47;9.40;99.90
27128;DHT22;14660;49.008;8.390;2023-02-02T15:59:21;9.50;99.90
27128;DHT22;14660;49.008;8.390;2023-02-02T16:04:57;9.50;99.90
27128;DHT22;14660;49.008;8.390;2023-02-02T16:07:31;9.40;99.90
27128;DHT22;14660;49.008;8.390;2023-02-02T16:10:06;9.50;99.90
27128;DHT22;14660;49.008;8.390;2023-02-02T16:12:35;9.40;99.90
27128;DHT22;14660;49.008;8.390;2023-02-02T16:15:18;9.40;99.90
27128;DHT22;14660;49.008;8.390;2023-02-02T16:20:28;9.30;99.90
27128;DHT22;14660;49.008;8.390;2023-02-02T16:23:00;9.30;99.90
27128;DHT22;14660;49.008;8.390;2023-02-02T16:25:32;9.40;99.90
27128;DHT22;14660;49.008;8.390;2023-02-02T16:28:00;9.40;99.90
27128;DHT22;14660;49.008;8.390;2023-02-02T16:30:47;9.30;99.90
27128;DHT22;14660;49.008;8.390;2023-02-02T16:33:37;9.40;99.90
27128;DHT22;14660;49.008;8.390;2023-02-02T16:36:25;9.30;99.90
27128;DHT22;14660;49.008;8.390;2023-02-02T16:38:56;9.20;99.90
27128;DHT22;14660;49.008;8.390;2023-02-02T16:41:43;9.30;99.90
27128;DHT22;14660;49.008;8.390;2023-02-02T16:44:50;9.20;99.90
27128;DHT22;14660;49.008;8.390;2023-02-02T16:47:35;9.10;99.90
27128;DHT22;14660;49.008;8.390;2023-02-02T16:50:28;9.20;99.90
27128;DHT22;14660;49.008;8.390;2023-02-02T16:53:02;9.20;99.90
27128;DHT22;14660;49.008;8.390;2023-02-02T16:55:32;9.10;99.90
27128;DHT22;14660;49.008;8.390;2023-02-02T16:58:00;9.10;99.90
27128;DHT22;14660;49.008;8.390;2023-02-02T17:00:36;9.20;99.90
27128;DHT22;14660;49.008;8.390;2023-02-02T17:03:13;9.10;99.90
27128;DHT22;14660;49.008;8.390;2023-02-02T17:05:51;9.20;99.90
27128;DHT22;14660;49.008;8.390;2023-02-02T17:08:39;9.30;99.90
27128;DHT22;14660;49.008;8.390;2023-02-02T17:11:25;9.20;99.90
27128;DHT22;14660;49.008;8.390;2023-02-02T17:13:53;9.20;99.90
27128;DHT22;14660;49.008;8.390;2023-02-02T17:16:22;9.10;99.90
27128;DHT22;14660;49.008;8.390;2023-02-02T17:18:50;9.20;99.90
27128;DHT22;14660;49.008;8.390;2023-02-02T17:21:20;9.20;99.90
27128;DHT22;14660;49.008;8.390;2023-02-02T17:23:49;9.20;99.90
27128;DHT22;14660;49.008;8.390;2023-02-02T17:26:20;9.30;99.90
27128;DHT22;14660;49.008;8.390;2023-02-02T17:28:46;9.20;99.90
27128;DHT22;14660;49.008;8.390;2023-02-02T17:31:15;9.20;99.90
27128;DHT22;14660;49.008;8.390;2023-02-02T17:33:42;9.20;99.90
27128;DHT22;14660;49.008;8.390;2023-02-02T17:36:13;9.20;99.90
27128;DHT22;14660;49.008;8.390;2023-02-02T17:38:39;9.30;99.90
27128;DHT22;14660;49.008;8.390;2023-02-02T17:41:08;9.30;99.90
27128;DHT22;14660;49.008;8.390;2023-02-02T17:43:35;9.20;99.90
27128;DHT22;14660;49.008;8.390;2023-02-02T17:46:02;9.20;99.90
27128;DHT22;14660;49.008;8.390;2023-02-02T17:48:29;9.20;99.90
27128;DHT22;14660;49.008;8.390;2023-02-02T17:50:58;9.20;99.90
27128;DHT22;14660;49.008;8.390;2023-02-02T17:53:24;9.20;99.90
27128;DHT22;14660;49.008;8.390;2023-02-02T17:55:55;9.20;99.90
27128;DHT22;14660;49.008;8.390;2023-02-02T17:58:23;9.20;99.90
27128;DHT22;14660;49.008;8.390;2023-02-02T18:00:52;9.20;99.90
27128;DHT22;14660;49.008;8.390;2023-02-02T18:03:32;9.20;99.90
27128;DHT22;14660;49.008;8.390;2023-02-02T18:06:00;9.10;99.90
27128;DHT22;14660;49.008;8.390;2023-02-02T18:08:28;9.10;99.90
27128;DHT22;14660;49.008;8.390;2023-02-02T18:10:56;9.20;99.90
27128;DHT22;14660;49.008;8.390;2023-02-02T18:13:23;9.20;99.90
27128;DHT22;14660;49.008;8.390;2023-02-02T18:15:51;9.20;99.90
27128;DHT22;14660;49.008;8.390;2023-02-02T18:18:19;9.20;99.90
27128;DHT22;14660;49.008;8.390;2023-02-02T18:20:49;9.30;99.90
27128;DHT22;14660;49.008;8.390;2023-02-02T18:23:17;9.30;99.90
27128;DHT22;14660;49.008;8.390;2023-02-02T18:25:45;9.30;99.90
27128;DHT22;14660;49.008;8.390;2023-02-02T18:28:11;9.30;99.90
27128;DHT22;14660;49.008;8.390;2023-02-02T18:30:41;9.30;99.90
27128;DHT22;14660;49.008;8.390;2023-02-02T18:33:09;9.20;99.90
27128;DHT22;14660;49.008;8.390;2023-02-02T18:35:44;9.10;99.90
27128;DHT22;14660;49.008;8.390;2023-02-02T18:38:12;9.10;99.90
27128;DHT22;14660;49.008;8.390;2023-02-02T18:40:41;9.20;99.90
27128;DHT22;14660;49.008;8.390;2023-02-02T18:43:08;9.20;99.90
27128;DHT22;14660;49.008;8.390;2023-02-02T18:45:35;9.20;99.90
27128;DHT22;14660;49.008;8.390;2023-02-02T18:48:02;9.20;99.90
27128;DHT22;14660;49.008;8.390;2023-02-02T18:50:29;9.30;99.90
27128;DHT22;14660;49.008;8.390;2023-02-02T18:52:56;9.20;99.90